createdAt,value
2024-02-28T00:01:57.625Z,19.37
2024-02-28T00:07:00.602Z,15.97
2024-02-28T00:12:03.669Z,17.50
2024-02-28T00:17:08.139Z,18.37
2024-02-28T00:22:11.384Z,18.67
2024-02-28T00:27:14.141Z,16.23
2024-02-28T00:32:18.270Z,17.87
2024-02-28T00:37:21.062Z,19.30
2024-02-28T00:42:24.091Z,18.37
2024-02-28T00:47:28.310Z,24.23
2024-02-28T00:52:32.930Z,19.57
2024-02-28T00:57:36.489Z,18.90
2024-02-28T01:02:42.436Z,17.97
2024-02-28T01:07:45.334Z,20.33
2024-02-28T01:12:48.113Z,19.73
2024-02-28T01:17:52.226Z,19.47
2024-02-28T01:22:54.982Z,17.80
2024-02-28T01:27:59.029Z,18.73
2024-02-28T01:33:03.425Z,21.17
2024-02-28T01:38:06.394Z,15.40
2024-02-28T01:43:09.490Z,17.73
2024-02-28T01:48:14.302Z,17.53
2024-02-28T01:53:19.331Z,14.60
2024-02-28T01:58:23.590Z,15.37
2024-02-28T02:03:27.707Z,12.47
2024-02-28T02:08:30.526Z,12.53
2024-02-28T02:13:33.244Z,11.77
2024-02-28T02:18:37.559Z,15.17
2024-02-28T02:23:42.591Z,15.30
2024-02-28T02:28:45.423Z,13.00
2024-02-28T02:33:48.233Z,16.33
2024-02-28T02:38:52.411Z,14.83
2024-02-28T02:43:55.158Z,15.57
2024-02-28T02:48:57.954Z,15.57
2024-02-28T02:54:02.177Z,12.70
2024-02-28T02:59:04.951Z,13.10
2024-02-28T03:04:07.668Z,16.37
2024-02-28T03:09:11.776Z,13.27
2024-02-28T03:14:14.736Z,11.47
2024-02-28T03:19:17.487Z,10.00
2024-02-28T03:24:21.676Z,13.67
2024-02-28T03:29:24.405Z,11.27
2024-02-28T03:34:27.127Z,11.73
2024-02-28T03:39:31.296Z,11.70
2024-02-28T03:44:34.081Z,12.17
2024-02-28T03:49:36.911Z,17.17
2024-02-28T03:54:44.313Z,18.73
2024-02-28T03:59:47.023Z,16.10
2024-02-28T04:04:49.814Z,14.97
2024-02-28T04:09:53.954Z,15.23
2024-02-28T04:14:56.745Z,13.90
2024-02-28T04:19:59.845Z,14.90
2024-02-28T04:25:04.077Z,15.13
2024-02-28T04:30:08.922Z,14.60
2024-02-28T04:35:12.317Z,13.03
2024-02-28T04:40:16.775Z,15.43
2024-02-28T04:45:19.568Z,12.53
2024-02-28T04:50:22.374Z,14.70
2024-02-28T04:55:26.531Z,14.23
2024-02-28T05:00:29.356Z,14.83
2024-02-28T05:05:32.068Z,15.93
2024-02-28T05:10:36.297Z,16.57
2024-02-28T05:15:39.107Z,17.70
2024-02-28T05:20:41.988Z,20.10
2024-02-28T05:25:46.085Z,16.07
2024-02-28T05:30:50.972Z,15.13
2024-02-28T05:35:53.991Z,17.13
2024-02-28T05:40:58.064Z,16.20
2024-02-28T05:46:00.836Z,14.77
2024-02-28T05:51:04.170Z,16.37
2024-02-28T05:56:14.221Z,13.83
2024-02-28T06:01:18.143Z,19.63
2024-02-28T06:06:20.989Z,15.90
2024-02-28T06:11:25.279Z,16.23
2024-02-28T06:16:28.049Z,15.53
2024-02-28T06:21:31.421Z,19.23
2024-02-28T06:26:36.020Z,22.80
2024-02-28T06:31:38.762Z,22.77
2024-02-28T06:36:41.560Z,18.53
2024-02-28T06:41:45.806Z,16.70
2024-02-28T06:46:48.552Z,15.03
2024-02-28T06:51:51.305Z,14.90
2024-02-28T06:56:55.621Z,16.53
2024-02-28T07:01:58.422Z,16.03
2024-02-28T07:07:01.314Z,17.00
2024-02-28T07:12:06.298Z,14.50
2024-02-28T07:17:09.192Z,14.57
2024-02-28T07:22:12.058Z,12.17
2024-02-28T07:27:16.860Z,15.67
2024-02-28T07:32:19.661Z,13.23
2024-02-28T07:37:22.407Z,13.87
2024-02-28T07:42:27.090Z,13.83
2024-02-28T07:47:29.959Z,13.77
2024-02-28T07:52:36.038Z,13.97
2024-02-28T07:57:40.234Z,16.57
2024-02-28T08:02:43.108Z,15.67
2024-02-28T08:07:46.275Z,13.43
2024-02-28T08:12:50.409Z,16.87
2024-02-28T08:17:53.278Z,16.60
2024-02-28T08:22:58.260Z,18.57
2024-02-28T08:28:02.574Z,20.87
2024-02-28T08:33:05.951Z,17.57
2024-02-28T08:38:08.725Z,22.63
2024-02-28T08:43:12.897Z,21.30
2024-02-28T08:48:15.665Z,22.93
2024-02-28T08:53:18.452Z,22.07
2024-02-28T08:58:22.583Z,27.00
2024-02-28T09:03:25.374Z,25.13
2024-02-28T09:08:28.215Z,19.50
2024-02-28T09:13:32.326Z,22.67
2024-02-28T09:18:35.272Z,27.67
2024-02-28T09:23:38.096Z,24.33
2024-02-28T09:28:42.363Z,27.17
2024-02-28T09:33:47.591Z,25.50
2024-02-28T09:38:50.505Z,24.40
2024-02-28T09:43:55.693Z,24.60
2024-02-28T09:48:58.621Z,23.17
2024-02-28T09:54:03.499Z,24.93
2024-02-28T09:59:09.165Z,22.10
2024-02-28T10:04:13.840Z,22.30
2024-02-28T10:09:16.924Z,20.93
2024-02-28T10:14:21.305Z,20.08
2024-02-28T10:19:24.074Z,20.03
2024-02-28T10:24:27.041Z,22.77
2024-02-28T10:29:33.797Z,18.95
2024-02-28T10:34:37.029Z,22.20
2024-02-28T10:39:40.306Z,20.77
2024-02-28T10:44:44.974Z,19.27
2024-02-28T10:49:47.763Z,23.15
2024-02-28T10:54:56.883Z,20.23
2024-02-28T11:00:01.484Z,22.33
2024-02-28T11:05:04.431Z,21.48
2024-02-28T11:10:08.307Z,20.35
2024-02-28T11:15:19.279Z,19.42
2024-02-28T11:20:23.679Z,18.27
2024-02-28T11:25:26.564Z,17.73
2024-02-28T11:30:30.936Z,18.90
2024-02-28T11:35:34.099Z,19.08
2024-02-28T11:40:36.990Z,16.15
2024-02-28T11:45:44.616Z,17.67
2024-02-28T11:50:47.432Z,17.30
2024-02-28T11:55:50.542Z,16.33
2024-02-28T12:00:55.490Z,16.92
2024-02-28T12:05:58.431Z,17.15
2024-02-28T12:11:08.818Z,13.48
2024-02-28T12:16:13.160Z,15.52
2024-02-28T12:21:16.020Z,13.30
2024-02-28T12:26:19.551Z,11.77
2024-02-28T12:31:23.762Z,13.05
2024-02-28T12:36:27.804Z,12.80
2024-02-28T12:41:31.269Z,14.45
2024-02-28T12:46:35.652Z,11.98
2024-02-28T12:51:40.193Z,12.50
2024-02-28T12:56:45.048Z,12.40
2024-02-28T13:01:49.758Z,12.95
2024-02-28T13:06:52.901Z,13.15
2024-02-28T13:11:55.864Z,12.70
2024-02-28T13:17:02.673Z,12.02
2024-02-28T13:22:07.416Z,18.42
2024-02-28T13:27:10.517Z,12.90
2024-02-28T13:32:14.863Z,12.77
2024-02-28T13:37:17.883Z,12.70
2024-02-28T13:42:22.071Z,12.23
2024-02-28T13:47:26.363Z,14.93
2024-02-28T13:52:29.213Z,11.77
2024-02-28T13:57:32.058Z,12.32
2024-02-28T14:02:36.414Z,12.00
2024-02-28T14:07:40.682Z,10.98
2024-02-28T14:12:43.706Z,10.55
2024-02-28T14:17:47.952Z,11.85
2024-02-28T14:22:50.719Z,12.00
2024-02-28T14:27:53.592Z,9.85
2024-02-28T14:32:58.873Z,11.90
2024-02-28T14:38:01.734Z,12.25
2024-02-28T14:43:04.663Z,11.20
2024-02-28T14:48:09.663Z,10.88
2024-02-28T14:53:12.609Z,9.88
2024-02-28T14:58:15.434Z,12.20
2024-02-28T15:03:19.921Z,11.88
2024-02-28T15:08:22.723Z,10.43
2024-02-28T15:13:25.565Z,9.07
2024-02-28T15:18:29.811Z,9.73
2024-02-28T15:23:33.018Z,11.43
2024-02-28T15:28:35.911Z,8.27
2024-02-28T15:33:40.125Z,9.05
2024-02-28T15:38:42.950Z,8.60
2024-02-28T15:43:45.720Z,11.93
2024-02-28T15:48:50.129Z,8.77
2024-02-28T15:53:52.906Z,8.95
2024-02-28T15:58:55.862Z,8.57
2024-02-28T16:04:00.465Z,9.38
2024-02-28T16:09:05.576Z,8.75
2024-02-28T16:14:08.373Z,7.82
2024-02-28T16:19:18.641Z,10.63
2024-02-28T16:24:25.853Z,8.07
2024-02-28T16:29:28.659Z,9.55
2024-02-28T16:34:32.895Z,9.10
2024-02-28T16:39:35.765Z,9.07
2024-02-28T16:44:39.021Z,9.73
2024-02-28T16:49:43.347Z,10.55
2024-02-28T16:54:47.711Z,8.98
2024-02-28T16:59:51.319Z,7.72
2024-02-28T17:04:55.561Z,9.05
2024-02-28T17:09:59.101Z,10.52
2024-02-28T17:15:02.115Z,10.00
2024-02-28T17:20:08.448Z,11.13
2024-02-28T17:25:12.265Z,13.27
2024-02-28T17:30:15.643Z,12.70
2024-02-28T17:35:20.404Z,19.40
2024-02-28T17:40:23.160Z,20.90
2024-02-28T17:45:25.999Z,18.48
2024-02-28T17:56:26.777Z,20.08
2024-02-28T18:01:30.126Z,18.40
2024-02-28T18:06:33.110Z,23.67
2024-02-28T18:11:37.919Z,21.80
2024-02-28T18:16:40.881Z,21.77
2024-02-28T18:21:57.294Z,23.17
2024-02-28T18:27:21.231Z,20.50
2024-02-28T18:32:31.844Z,15.37
2024-02-28T18:37:34.817Z,22.47
2024-02-28T18:42:39.506Z,24.73
2024-02-28T18:47:42.578Z,20.73
2024-02-28T18:52:45.572Z,22.83
2024-02-28T18:57:50.024Z,18.37
2024-02-28T19:02:54.716Z,15.57
2024-02-28T19:07:57.513Z,14.60
2024-02-28T19:13:01.969Z,15.40
2024-02-28T19:18:05.115Z,17.40
2024-02-28T19:23:07.942Z,15.93
2024-02-28T19:28:12.238Z,14.00
2024-02-28T19:33:15.316Z,18.70
2024-02-28T19:38:18.279Z,18.10
2024-02-28T19:43:22.540Z,17.03
2024-02-28T19:48:25.413Z,18.93
2024-02-28T19:53:29.914Z,19.20
2024-02-28T19:58:35.249Z,22.30
2024-02-28T20:03:37.985Z,20.23
2024-02-28T20:08:41.031Z,16.50
2024-02-28T20:13:49.138Z,13.13
2024-02-28T20:18:52.897Z,13.67
2024-02-28T20:23:56.503Z,14.17
2024-02-28T20:29:01.122Z,14.83
2024-02-28T20:34:04.010Z,15.23
2024-02-28T20:39:10.250Z,12.37
2024-02-28T20:44:14.501Z,14.20
2024-02-28T20:49:18.084Z,13.67
2024-02-28T20:54:20.988Z,12.77
2024-02-28T20:59:27.474Z,12.47
2024-02-28T21:04:30.532Z,19.10
2024-02-28T21:09:33.799Z,16.13
2024-02-28T21:14:37.922Z,14.17
2024-02-28T21:19:41.106Z,13.33
2024-02-28T21:24:43.950Z,12.77
2024-02-28T21:29:48.238Z,11.10
2024-02-28T21:34:51.334Z,11.93
2024-02-28T21:39:54.482Z,14.73
2024-02-28T21:44:58.948Z,13.73
2024-02-28T21:50:01.879Z,14.90
2024-02-28T21:55:05.992Z,16.73
2024-02-28T22:00:13.432Z,14.00
2024-02-28T22:05:16.421Z,16.67
2024-02-28T22:10:19.444Z,14.70
2024-02-28T22:15:25.246Z,16.00
2024-02-28T22:20:28.062Z,15.40
2024-02-28T22:25:30.831Z,16.90
2024-02-28T22:30:34.954Z,16.20
2024-02-28T22:35:37.904Z,13.77
2024-02-28T22:40:40.726Z,14.17
2024-02-28T22:45:46.776Z,15.53
2024-02-28T22:50:49.652Z,16.33
2024-02-28T22:55:53.046Z,15.77
2024-02-28T23:00:57.307Z,14.63
2024-02-28T23:06:01.425Z,15.90
2024-02-28T23:11:04.489Z,17.77
2024-02-28T23:16:09.028Z,15.40
2024-02-28T23:21:11.870Z,16.07
2024-02-28T23:26:14.634Z,17.17
2024-02-28T23:31:22.414Z,14.53
2024-02-28T23:36:25.214Z,15.30
2024-02-28T23:41:29.794Z,15.57
2024-02-28T23:46:34.600Z,13.87
2024-02-28T23:51:37.402Z,15.97
2024-02-28T23:56:40.163Z,14.37
